createdAt,value
2016-12-23T00:00:07.799Z,970.43
2016-12-23T00:01:07.592Z,970.48
2016-12-23T00:02:08.822Z,970.46
2016-12-23T00:03:07.454Z,970.44
2016-12-23T00:04:08.211Z,970.43
2016-12-23T00:05:07.803Z,970.44
2016-12-23T00:06:07.325Z,970.47
2016-12-23T00:07:07.858Z,970.46
2016-12-23T00:08:07.612Z,970.50
2016-12-23T00:09:08.311Z,970.49
2016-12-23T00:10:07.899Z,970.51
2016-12-23T00:11:07.407Z,970.49
2016-12-23T00:12:08.674Z,970.48
2016-12-23T00:13:08.300Z,970.45
2016-12-23T00:14:07.765Z,970.49
2016-12-23T00:15:07.386Z,970.49
2016-12-23T00:16:08.063Z,970.54
2016-12-23T00:17:08.235Z,970.55
2016-12-23T00:18:07.927Z,970.56
2016-12-23T00:19:07.597Z,970.54
2016-12-23T00:20:09.074Z,970.48
2016-12-23T00:21:07.583Z,970.57
2016-12-23T00:22:08.124Z,970.54
2016-12-23T00:23:07.887Z,970.55
2016-12-23T00:24:07.462Z,970.52
2016-12-23T00:25:08.332Z,970.53
2016-12-23T00:26:08.173Z,970.50
2016-12-23T00:27:09.056Z,970.55
2016-12-23T00:28:07.566Z,970.54
2016-12-23T00:29:08.263Z,970.52
2016-12-23T00:30:08.006Z,970.52
2016-12-23T00:31:07.566Z,970.52
2016-12-23T00:32:08.058Z,970.53
2016-12-23T00:33:07.577Z,970.53
2016-12-23T00:34:08.197Z,970.53
2016-12-23T00:35:08.142Z,970.51
2016-12-23T00:36:07.674Z,970.53
2016-12-23T00:37:08.335Z,970.53
2016-12-23T00:38:07.578Z,970.51
2016-12-23T00:39:08.097Z,970.55
2016-12-23T00:40:07.618Z,970.57
2016-12-23T00:41:08.197Z,970.53
2016-12-23T00:42:07.668Z,970.54
2016-12-23T00:43:08.160Z,970.55
2016-12-23T00:44:07.641Z,970.64
2016-12-23T00:45:08.138Z,970.59
2016-12-23T00:46:07.635Z,970.64
2016-12-23T00:47:08.288Z,970.67
2016-12-23T00:48:08.117Z,970.66
2016-12-23T00:49:07.654Z,970.69
2016-12-23T00:50:08.174Z,970.74
2016-12-23T00:51:07.724Z,970.73
2016-12-23T00:52:08.269Z,970.75
2016-12-23T00:53:07.704Z,970.73
2016-12-23T00:54:08.211Z,970.77
2016-12-23T00:55:07.749Z,970.79
2016-12-23T00:56:08.265Z,970.77
2016-12-23T00:57:07.899Z,970.77
2016-12-23T00:58:07.430Z,970.75
2016-12-23T00:59:07.540Z,970.74
2016-12-23T01:00:08.134Z,970.70
2016-12-23T01:01:07.587Z,970.72
2016-12-23T01:02:07.888Z,970.72
2016-12-23T01:03:07.364Z,970.73
2016-12-23T01:04:07.986Z,970.76
2016-12-23T01:05:07.805Z,970.80
2016-12-23T01:06:07.282Z,970.76
2016-12-23T01:07:07.867Z,970.73
2016-12-23T01:08:07.363Z,970.75
2016-12-23T01:09:07.862Z,970.81
2016-12-23T01:10:07.645Z,970.80
2016-12-23T01:11:08.159Z,970.84
2016-12-23T01:12:07.653Z,970.81
2016-12-23T01:13:08.270Z,970.87
2016-12-23T01:14:07.962Z,970.85
2016-12-23T01:15:07.796Z,970.91
2016-12-23T01:16:07.217Z,970.92
2016-12-23T01:17:07.972Z,970.98
2016-12-23T01:18:07.482Z,970.99
2016-12-23T01:19:08.076Z,971.03
2016-12-23T01:20:07.592Z,971.06
2016-12-23T01:21:08.297Z,971.03
2016-12-23T01:22:07.803Z,971.04
2016-12-23T01:23:07.354Z,971.03
2016-12-23T01:24:07.844Z,971.08
2016-12-23T01:25:07.314Z,971.11
2016-12-23T01:26:07.740Z,971.11
2016-12-23T01:27:08.267Z,971.12
2016-12-23T01:28:08.401Z,971.10
2016-12-23T01:29:08.245Z,971.15
2016-12-23T01:30:07.823Z,971.17
2016-12-23T01:31:07.547Z,971.21
2016-12-23T01:32:08.091Z,971.24
2016-12-23T01:33:07.622Z,971.22
2016-12-23T01:34:07.673Z,971.24
2016-12-23T01:35:08.453Z,971.24
2016-12-23T01:36:08.247Z,971.24
2016-12-23T01:37:07.708Z,971.22
2016-12-23T01:38:08.418Z,971.21
2016-12-23T01:39:07.938Z,971.20
2016-12-23T01:40:07.936Z,971.20
2016-12-23T01:41:07.732Z,971.20
2016-12-23T01:42:08.227Z,971.24
2016-12-23T01:43:07.942Z,971.21
2016-12-23T01:44:07.636Z,971.20
2016-12-23T01:45:08.285Z,971.20
2016-12-23T01:46:07.787Z,971.21
2016-12-23T01:47:07.334Z,971.24
2016-12-23T01:48:07.786Z,971.28
2016-12-23T01:49:07.374Z,971.30
2016-12-23T01:50:07.831Z,971.29
2016-12-23T01:51:07.538Z,971.28
2016-12-23T01:52:07.986Z,971.27
2016-12-23T01:53:08.027Z,971.27
2016-12-23T01:54:08.474Z,971.33
2016-12-23T01:55:08.486Z,971.36
2016-12-23T01:56:08.057Z,971.36
2016-12-23T01:57:07.550Z,971.36
2016-12-23T01:58:07.986Z,971.39
2016-12-23T01:59:07.616Z,971.33
2016-12-23T02:00:07.776Z,971.38
2016-12-23T02:01:08.017Z,971.39
2016-12-23T02:02:07.748Z,971.44
2016-12-23T02:03:08.202Z,971.39
2016-12-23T02:04:07.646Z,971.45
2016-12-23T02:05:08.109Z,971.46
2016-12-23T02:06:07.663Z,971.45
2016-12-23T02:07:08.385Z,971.48
2016-12-23T02:08:07.899Z,971.52
2016-12-23T02:09:07.446Z,971.49
2016-12-23T02:10:07.633Z,971.50
2016-12-23T02:11:08.172Z,971.42
2016-12-23T02:12:07.879Z,971.44
2016-12-23T02:13:07.335Z,971.38
2016-12-23T02:14:07.852Z,971.44
2016-12-23T02:15:07.807Z,971.43
2016-12-23T02:16:07.623Z,971.43
2016-12-23T02:17:08.276Z,971.46
2016-12-23T02:18:08.137Z,971.39
2016-12-23T02:19:07.606Z,971.45
2016-12-23T02:20:08.444Z,971.48
2016-12-23T02:21:08.128Z,971.47
2016-12-23T02:22:07.857Z,971.44
2016-12-23T02:23:07.724Z,971.43
2016-12-23T02:24:08.417Z,971.43
2016-12-23T02:25:07.991Z,971.42
2016-12-23T02:26:07.520Z,971.37
2016-12-23T02:27:07.853Z,971.39
2016-12-23T02:28:07.626Z,971.36
2016-12-23T02:29:08.155Z,971.34
2016-12-23T02:30:08.064Z,971.37
2016-12-23T02:31:07.568Z,971.38
2016-12-23T02:32:07.934Z,971.41
2016-12-23T02:33:07.647Z,971.38
2016-12-23T02:34:08.138Z,971.36
2016-12-23T02:35:07.611Z,971.34
2016-12-23T02:36:08.155Z,971.39
2016-12-23T02:37:07.617Z,971.37
2016-12-23T02:38:08.135Z,971.37
2016-12-23T02:39:07.674Z,971.40
2016-12-23T02:40:08.324Z,971.38
2016-12-23T02:41:08.142Z,971.43
2016-12-23T02:42:07.606Z,971.37
2016-12-23T02:43:08.066Z,971.39
2016-12-23T02:44:07.502Z,971.41
2016-12-23T02:45:08.032Z,971.39
2016-12-23T02:46:07.708Z,971.37
2016-12-23T02:47:08.168Z,971.39
2016-12-23T02:48:07.698Z,971.37
2016-12-23T02:49:08.367Z,971.35
2016-12-23T02:50:07.684Z,971.36
2016-12-23T02:51:08.178Z,971.37
2016-12-23T02:52:07.944Z,971.38
2016-12-23T02:53:07.476Z,971.33
2016-12-23T02:54:07.497Z,971.38
2016-12-23T02:55:08.193Z,971.42
2016-12-23T02:56:07.691Z,971.42
2016-12-23T02:57:08.133Z,971.44
2016-12-23T02:58:07.738Z,971.44
2016-12-23T02:59:08.194Z,971.44
2016-12-23T03:00:07.392Z,971.47
2016-12-23T03:01:07.914Z,971.51
2016-12-23T03:02:07.703Z,971.56
2016-12-23T03:03:08.767Z,971.53
2016-12-23T03:04:07.267Z,971.50
2016-12-23T03:05:07.732Z,971.50
2016-12-23T03:06:08.262Z,971.49
2016-12-23T03:07:07.758Z,971.51
2016-12-23T03:08:08.415Z,971.47
2016-12-23T03:09:07.945Z,971.45
2016-12-23T03:10:07.417Z,971.44
2016-12-23T03:11:07.956Z,971.45
2016-12-23T03:12:08.052Z,971.45
2016-12-23T03:13:07.535Z,971.42
2016-12-23T03:14:08.201Z,971.41
2016-12-23T03:15:08.434Z,971.49
2016-12-23T03:16:08.163Z,971.47
2016-12-23T03:17:07.860Z,971.50
2016-12-23T03:18:07.444Z,971.47
2016-12-23T03:19:07.900Z,971.44
2016-12-23T03:20:07.421Z,971.49
2016-12-23T03:21:07.908Z,971.48
2016-12-23T03:22:07.583Z,971.47
2016-12-23T03:23:08.105Z,971.45
2016-12-23T03:24:07.779Z,971.46
2016-12-23T03:25:07.412Z,971.46
2016-12-23T03:26:08.195Z,971.44
2016-12-23T03:27:07.646Z,971.42
2016-12-23T03:28:08.416Z,971.40
2016-12-23T03:29:08.083Z,971.45
2016-12-23T03:30:07.677Z,971.43
2016-12-23T03:31:08.355Z,971.45
2016-12-23T03:32:07.791Z,971.48
2016-12-23T03:33:07.549Z,971.48
2016-12-23T03:34:08.000Z,971.48
2016-12-23T03:35:07.709Z,971.51
2016-12-23T03:36:08.498Z,971.51
2016-12-23T03:37:08.031Z,971.49
2016-12-23T03:38:07.868Z,971.54
2016-12-23T03:39:07.404Z,971.53
2016-12-23T03:40:08.162Z,971.43
2016-12-23T03:41:08.352Z,971.49
2016-12-23T03:42:07.943Z,971.50
2016-12-23T03:43:07.422Z,971.55
2016-12-23T03:44:07.910Z,971.53
2016-12-23T03:45:07.471Z,971.44
2016-12-23T03:46:08.162Z,971.47
2016-12-23T03:47:07.984Z,971.45
2016-12-23T03:48:07.425Z,971.45
2016-12-23T03:49:07.903Z,971.36
2016-12-23T03:50:07.664Z,971.38
2016-12-23T03:51:08.256Z,971.37
2016-12-23T03:52:07.482Z,971.41
2016-12-23T03:53:08.311Z,971.43
2016-12-23T03:54:07.765Z,971.47
2016-12-23T03:55:07.632Z,971.46
2016-12-23T03:56:08.201Z,971.46
2016-12-23T03:57:08.100Z,971.51
2016-12-23T03:58:07.653Z,971.46
2016-12-23T03:59:08.153Z,971.45
2016-12-23T04:00:08.211Z,971.52
2016-12-23T04:01:07.783Z,971.46
2016-12-23T04:02:07.314Z,971.48
2016-12-23T04:03:07.806Z,971.50
2016-12-23T04:04:07.510Z,971.48
2016-12-23T04:05:08.020Z,971.45
2016-12-23T04:06:07.587Z,971.47
2016-12-23T04:07:08.090Z,971.42
2016-12-23T04:08:07.620Z,971.43
2016-12-23T04:09:08.241Z,971.36
2016-12-23T04:10:07.943Z,971.46
2016-12-23T04:11:08.436Z,971.41
2016-12-23T04:12:07.767Z,971.46
2016-12-23T04:13:07.532Z,971.51
2016-12-23T04:14:08.049Z,971.51
2016-12-23T04:15:07.571Z,971.49
2016-12-23T04:16:08.282Z,971.57
2016-12-23T04:17:08.188Z,971.55
2016-12-23T04:18:08.062Z,971.54
2016-12-23T04:19:07.605Z,971.57
2016-12-23T04:20:08.073Z,971.53
2016-12-23T04:21:07.516Z,971.55
2016-12-23T04:22:08.073Z,971.60
2016-12-23T04:23:07.742Z,971.61
2016-12-23T04:24:08.595Z,971.60
2016-12-23T04:25:08.040Z,971.56
2016-12-23T04:26:07.577Z,971.60
2016-12-23T04:27:08.212Z,971.61
2016-12-23T04:28:07.636Z,971.64
2016-12-23T04:29:08.187Z,971.62
2016-12-23T04:30:07.675Z,971.69
2016-12-23T04:31:08.180Z,971.72
2016-12-23T04:32:07.655Z,971.68
2016-12-23T04:33:08.189Z,971.71
2016-12-23T04:34:07.688Z,971.65
2016-12-23T04:35:08.179Z,971.62
2016-12-23T04:36:08.187Z,971.67
2016-12-23T04:37:07.762Z,971.67
2016-12-23T04:38:07.259Z,971.68
2016-12-23T04:39:07.716Z,971.72
2016-12-23T04:40:08.336Z,971.70
2016-12-23T04:41:07.564Z,971.70
2016-12-23T04:42:08.418Z,971.70
2016-12-23T04:43:07.981Z,971.71
2016-12-23T04:44:07.540Z,971.72
2016-12-23T04:45:08.088Z,971.72
2016-12-23T04:46:07.588Z,971.72
2016-12-23T04:47:08.346Z,971.71
2016-12-23T04:48:07.886Z,971.72
2016-12-23T04:49:07.633Z,971.73
2016-12-23T04:50:07.990Z,971.77
2016-12-23T04:51:07.511Z,971.74
2016-12-23T04:52:08.040Z,971.78
2016-12-23T04:53:07.715Z,971.77
2016-12-23T04:54:08.353Z,971.78
2016-12-23T04:55:07.838Z,971.77
2016-12-23T04:56:07.615Z,971.80
2016-12-23T04:57:08.453Z,971.76
2016-12-23T04:58:08.004Z,971.81
2016-12-23T04:59:07.655Z,971.83
2016-12-23T05:00:08.169Z,971.88
2016-12-23T05:01:07.667Z,971.87
2016-12-23T05:02:08.156Z,971.93
2016-12-23T05:03:07.689Z,971.98
2016-12-23T05:04:07.590Z,971.90
2016-12-23T05:05:08.113Z,971.97
2016-12-23T05:06:07.593Z,971.94
2016-12-23T05:07:08.212Z,971.95
2016-12-23T05:08:07.775Z,971.97
2016-12-23T05:09:07.308Z,972.03
2016-12-23T05:10:07.416Z,972.03
2016-12-23T05:11:07.809Z,972.00
2016-12-23T05:12:07.336Z,972.02
2016-12-23T05:13:08.161Z,972.06
2016-12-23T05:14:07.459Z,972.03
2016-12-23T05:15:08.208Z,971.97
2016-12-23T05:16:07.666Z,971.94
2016-12-23T05:17:08.301Z,971.97
2016-12-23T05:18:07.815Z,971.95
2016-12-23T05:19:07.282Z,971.98
2016-12-23T05:20:07.918Z,971.99
2016-12-23T05:21:07.399Z,972.01
2016-12-23T05:22:08.485Z,972.01
2016-12-23T05:23:07.843Z,972.04
2016-12-23T05:24:07.948Z,972.03
2016-12-23T05:25:10.098Z,972.10
2016-12-23T05:26:07.538Z,972.04
2016-12-23T05:27:08.114Z,972.07
2016-12-23T05:28:07.709Z,972.11
2016-12-23T05:29:08.176Z,972.14
2016-12-23T05:30:07.662Z,972.17
2016-12-23T05:31:08.220Z,972.12
2016-12-23T05:32:08.159Z,972.13
2016-12-23T05:33:07.749Z,972.13
2016-12-23T05:34:08.221Z,972.09
2016-12-23T05:35:07.820Z,972.13
2016-12-23T05:36:07.270Z,972.18
2016-12-23T05:37:07.845Z,972.20
2016-12-23T05:38:07.377Z,972.19
2016-12-23T05:39:07.908Z,972.21
2016-12-23T05:40:07.715Z,972.17
2016-12-23T05:41:08.497Z,972.21
2016-12-23T05:42:07.997Z,972.21
2016-12-23T05:43:08.004Z,972.19
2016-12-23T05:44:07.747Z,972.20
2016-12-23T05:45:08.271Z,972.28
2016-12-23T05:46:07.773Z,972.30
2016-12-23T05:47:07.288Z,972.32
2016-12-23T05:48:07.860Z,972.38
2016-12-23T05:49:07.361Z,972.35
2016-12-23T05:50:07.799Z,972.39
2016-12-23T05:51:07.425Z,972.37
2016-12-23T05:52:08.062Z,972.39
2016-12-23T05:53:07.884Z,972.42
2016-12-23T05:54:07.709Z,972.42
2016-12-23T05:55:08.587Z,972.42
2016-12-23T05:56:08.361Z,972.39
2016-12-23T05:57:08.204Z,972.37
2016-12-23T05:58:07.892Z,972.31
2016-12-23T05:59:07.370Z,972.40
2016-12-23T06:00:07.879Z,972.43
2016-12-23T06:01:07.366Z,972.46
2016-12-23T06:02:07.896Z,972.49
2016-12-23T06:03:07.467Z,972.48
2016-12-23T06:04:08.348Z,972.47
2016-12-23T06:05:08.080Z,972.52
2016-12-23T06:06:07.519Z,972.52
2016-12-23T06:07:08.019Z,972.57
2016-12-23T06:08:07.536Z,972.58
2016-12-23T06:09:07.749Z,972.59
2016-12-23T06:10:08.423Z,972.60
2016-12-23T06:11:07.944Z,972.61
2016-12-23T06:12:07.391Z,972.65
2016-12-23T06:13:07.906Z,972.68
2016-12-23T06:14:07.671Z,972.68
2016-12-23T06:15:08.169Z,972.69
2016-12-23T06:16:07.663Z,972.74
2016-12-23T06:17:08.302Z,972.72
2016-12-23T06:18:07.788Z,972.72
2016-12-23T06:19:07.833Z,972.76
2016-12-23T06:20:07.423Z,972.75
2016-12-23T06:21:07.910Z,972.77
2016-12-23T06:22:07.420Z,972.83
2016-12-23T06:23:08.113Z,972.82
2016-12-23T06:24:07.604Z,972.84
2016-12-23T06:25:08.021Z,972.82
2016-12-23T06:26:07.687Z,972.85
2016-12-23T06:27:08.437Z,972.86
2016-12-23T06:28:08.139Z,972.90
2016-12-23T06:29:07.916Z,972.87
2016-12-23T06:30:07.813Z,972.92
2016-12-23T06:31:07.626Z,972.95
2016-12-23T06:32:08.410Z,972.94
2016-12-23T06:33:07.949Z,972.95
2016-12-23T06:34:07.460Z,972.95
2016-12-23T06:35:08.158Z,972.95
2016-12-23T06:36:07.628Z,972.97
2016-12-23T06:37:08.158Z,972.92
2016-12-23T06:38:07.688Z,972.95
2016-12-23T06:39:08.173Z,972.95
2016-12-23T06:40:07.651Z,972.95
2016-12-23T06:41:08.141Z,972.95
2016-12-23T06:42:07.657Z,972.97
2016-12-23T06:43:08.590Z,973.00
2016-12-23T06:44:08.101Z,973.04
2016-12-23T06:45:07.885Z,973.06
2016-12-23T06:46:07.756Z,973.04
2016-12-23T06:47:07.287Z,973.03
2016-12-23T06:48:07.847Z,973.06
2016-12-23T06:49:07.784Z,973.07
2016-12-23T06:50:07.586Z,973.11
2016-12-23T06:51:08.024Z,973.17
2016-12-23T06:52:07.644Z,973.24
2016-12-23T06:53:08.266Z,973.24
2016-12-23T06:54:07.770Z,973.26
2016-12-23T06:55:07.301Z,973.36
2016-12-23T06:56:08.188Z,973.32
2016-12-23T06:57:07.640Z,973.36
2016-12-23T06:58:08.120Z,973.39
2016-12-23T06:59:08.242Z,973.42
2016-12-23T07:00:07.987Z,973.44
2016-12-23T07:01:07.733Z,973.39
2016-12-23T07:02:08.470Z,973.44
2016-12-23T07:03:08.058Z,973.46
2016-12-23T07:04:07.805Z,973.48
2016-12-23T07:05:07.711Z,973.50
2016-12-23T07:06:07.800Z,973.53
2016-12-23T07:07:07.338Z,973.55
2016-12-23T07:08:07.816Z,973.53
2016-12-23T07:09:07.417Z,973.55
2016-12-23T07:10:07.933Z,973.55
2016-12-23T07:11:07.603Z,973.52
2016-12-23T07:12:08.279Z,973.57
2016-12-23T07:13:07.780Z,973.62
2016-12-23T07:14:07.317Z,973.60
2016-12-23T07:15:07.970Z,973.60
2016-12-23T07:16:07.851Z,973.62
2016-12-23T07:17:08.054Z,973.62
2016-12-23T07:18:07.971Z,973.66
2016-12-23T07:19:07.548Z,973.69
2016-12-23T07:20:08.067Z,973.75
2016-12-23T07:21:07.519Z,973.75
2016-12-23T07:22:08.209Z,973.76
2016-12-23T07:23:08.057Z,973.77
2016-12-23T07:24:07.587Z,973.78
2016-12-23T07:25:08.100Z,973.78
2016-12-23T07:26:07.602Z,973.77
2016-12-23T07:27:08.163Z,973.81
2016-12-23T07:28:07.860Z,973.84
2016-12-23T07:29:07.360Z,973.78
2016-12-23T07:30:07.880Z,973.83
2016-12-23T07:31:07.380Z,973.81
2016-12-23T07:32:08.339Z,973.81
2016-12-23T07:33:07.964Z,973.77
2016-12-23T07:34:07.792Z,973.83
2016-12-23T07:35:07.362Z,973.83
2016-12-23T07:36:08.257Z,973.84
2016-12-23T07:37:24.820Z,973.88
2016-12-23T07:38:07.317Z,973.88
2016-12-23T07:39:07.980Z,973.91
2016-12-23T07:40:08.549Z,973.89
2016-12-23T07:41:07.962Z,973.91
2016-12-23T07:42:07.671Z,973.87
2016-12-23T07:43:08.358Z,973.86
2016-12-23T07:44:07.926Z,973.89
2016-12-23T07:45:07.806Z,973.89
2016-12-23T07:46:08.222Z,973.89
2016-12-23T07:47:07.711Z,973.88
2016-12-23T07:48:07.543Z,973.86
2016-12-23T07:49:08.388Z,973.92
2016-12-23T07:50:07.900Z,973.91
2016-12-23T07:51:07.516Z,973.91
2016-12-23T07:52:08.165Z,973.94
2016-12-23T07:53:07.723Z,973.92
2016-12-23T07:54:07.902Z,973.91
2016-12-23T07:55:07.463Z,973.94
2016-12-23T07:56:08.101Z,973.99
2016-12-23T07:57:08.059Z,973.96
2016-12-23T07:58:07.901Z,974.02
2016-12-23T07:59:07.353Z,974.01
2016-12-23T08:00:08.173Z,974.02
2016-12-23T08:01:07.649Z,974.05
2016-12-23T08:02:07.956Z,974.01
2016-12-23T08:03:07.531Z,974.03
2016-12-23T08:04:08.113Z,974.00
2016-12-23T08:05:07.362Z,974.01
2016-12-23T08:06:07.827Z,974.01
2016-12-23T08:07:07.461Z,973.99
2016-12-23T08:08:08.292Z,974.00
2016-12-23T08:09:07.869Z,974.04
2016-12-23T08:10:16.459Z,974.03
2016-12-23T08:11:08.263Z,974.01
2016-12-23T08:12:07.802Z,974.04
2016-12-23T08:13:07.370Z,974.03
2016-12-23T08:14:07.821Z,974.05
2016-12-23T08:15:08.038Z,974.03
2016-12-23T08:16:07.510Z,974.04
2016-12-23T08:17:08.129Z,974.01
2016-12-23T08:18:07.831Z,974.00
2016-12-23T08:19:07.303Z,973.99
2016-12-23T08:20:07.750Z,973.96
2016-12-23T08:21:08.380Z,973.98
2016-12-23T08:22:07.847Z,973.99
2016-12-23T08:23:07.331Z,973.92
2016-12-23T08:24:08.164Z,973.99
2016-12-23T08:25:07.657Z,974.00
2016-12-23T08:26:08.472Z,973.98
2016-12-23T08:27:08.070Z,973.98
2016-12-23T08:28:07.509Z,973.95
2016-12-23T08:29:08.240Z,974.01
2016-12-23T08:30:07.758Z,973.93
2016-12-23T08:31:07.520Z,973.96
2016-12-23T08:32:08.368Z,973.96
2016-12-23T08:33:08.005Z,973.94
2016-12-23T08:34:07.519Z,973.91
2016-12-23T08:35:07.632Z,973.91
2016-12-23T08:36:08.168Z,973.91
2016-12-23T08:37:07.831Z,973.88
2016-12-23T08:38:07.350Z,973.88
2016-12-23T08:39:07.792Z,973.91
2016-12-23T08:40:07.358Z,973.87
2016-12-23T08:41:07.759Z,973.84
2016-12-23T08:42:07.442Z,973.83
2016-12-23T08:43:08.147Z,973.82
2016-12-23T08:44:07.648Z,973.79
2016-12-23T08:45:08.149Z,973.83
2016-12-23T08:46:07.652Z,973.80
2016-12-23T08:47:08.106Z,973.82
2016-12-23T08:48:07.700Z,973.82
2016-12-23T08:49:07.882Z,973.84
2016-12-23T08:50:07.484Z,973.81
2016-12-23T08:51:07.933Z,973.84
2016-12-23T08:52:08.012Z,973.82
2016-12-23T08:53:07.645Z,973.86
2016-12-23T08:54:08.161Z,973.87
2016-12-23T08:55:08.180Z,973.89
2016-12-23T08:56:31.263Z,973.89
2016-12-23T08:57:08.049Z,973.92
2016-12-23T08:58:07.585Z,973.97
2016-12-23T08:59:07.982Z,973.94
2016-12-23T09:00:08.761Z,973.90
2016-12-23T09:01:07.770Z,973.95
2016-12-23T09:02:08.505Z,973.96
2016-12-23T09:03:10.222Z,974.02
2016-12-23T09:04:08.760Z,974.04
2016-12-23T09:05:09.713Z,974.07
2016-12-23T09:06:10.397Z,974.03
2016-12-23T09:07:07.717Z,974.04
2016-12-23T09:08:08.377Z,974.01
2016-12-23T09:09:07.941Z,974.03
2016-12-23T09:10:08.828Z,974.02
2016-12-23T09:11:08.729Z,974.01
2016-12-23T09:12:10.595Z,974.05
2016-12-23T09:13:10.460Z,974.04
2016-12-23T09:14:15.566Z,974.09
2016-12-23T09:15:08.101Z,974.04
2016-12-23T09:16:07.703Z,974.02
2016-12-23T09:17:08.533Z,974.02
2016-12-23T09:18:08.152Z,974.01
2016-12-23T09:19:07.897Z,974.00
2016-12-23T09:20:07.451Z,974.03
2016-12-23T09:21:08.448Z,974.03
2016-12-23T09:22:08.140Z,974.06
2016-12-23T09:23:07.714Z,974.06
2016-12-23T09:24:08.109Z,974.06
2016-12-23T09:25:07.669Z,974.04
2016-12-23T09:26:08.438Z,974.07
2016-12-23T09:27:07.989Z,974.18
2016-12-23T09:28:07.857Z,974.09
2016-12-23T09:29:07.420Z,974.08
2016-12-23T09:30:07.988Z,974.10
2016-12-23T09:31:07.458Z,974.13
2016-12-23T09:32:08.269Z,974.13
2016-12-23T09:33:07.697Z,974.09
2016-12-23T09:34:08.398Z,974.07
2016-12-23T09:35:08.258Z,974.05
2016-12-23T09:36:08.119Z,974.04
2016-12-23T09:37:07.610Z,974.04
2016-12-23T09:38:08.144Z,974.08
2016-12-23T09:39:07.681Z,974.02
2016-12-23T09:40:08.258Z,974.05
2016-12-23T09:41:18.518Z,974.08
2016-12-23T09:42:08.319Z,974.07
2016-12-23T09:43:07.860Z,974.04
2016-12-23T09:44:07.504Z,974.07
2016-12-23T09:45:08.048Z,974.03
2016-12-23T09:46:07.659Z,974.05
2016-12-23T09:47:07.999Z,974.04
2016-12-23T09:48:07.689Z,974.04
2016-12-23T09:49:07.838Z,974.02
2016-12-23T09:50:07.867Z,974.02
2016-12-23T09:51:07.457Z,974.04
2016-12-23T09:52:08.055Z,974.03
2016-12-23T09:53:07.772Z,974.09
2016-12-23T09:54:07.222Z,974.07
2016-12-23T09:55:07.981Z,974.03
2016-12-23T09:56:07.910Z,974.00
2016-12-23T09:57:07.756Z,973.99
2016-12-23T09:58:08.287Z,973.97
2016-12-23T09:59:07.785Z,973.99
2016-12-23T10:00:07.262Z,973.95
2016-12-23T10:01:07.774Z,973.98
2016-12-23T10:02:07.920Z,974.00
2016-12-23T10:03:07.378Z,974.07
2016-12-23T10:04:08.081Z,974.09
2016-12-23T10:05:07.711Z,974.08
2016-12-23T10:06:08.479Z,974.07
2016-12-23T10:07:08.336Z,974.07
2016-12-23T10:08:07.791Z,974.05
2016-12-23T10:09:07.851Z,974.06
2016-12-23T10:10:07.410Z,974.03
2016-12-23T10:11:08.022Z,974.01
2016-12-23T10:12:07.683Z,973.96
2016-12-23T10:13:08.202Z,974.00
2016-12-23T10:14:07.992Z,973.98
2016-12-23T10:15:07.661Z,973.97
2016-12-23T10:16:08.505Z,973.99
2016-12-23T10:17:08.493Z,973.96
2016-12-23T10:18:08.303Z,973.97
2016-12-23T10:19:07.799Z,973.95
2016-12-23T10:20:07.472Z,973.99
2016-12-23T10:21:08.117Z,973.96
2016-12-23T10:22:07.625Z,973.97
2016-12-23T10:23:08.506Z,973.96
2016-12-23T10:24:08.143Z,973.91
2016-12-23T10:25:07.927Z,973.95
2016-12-23T10:26:07.663Z,973.87
2016-12-23T10:27:08.164Z,973.86
2016-12-23T10:28:07.600Z,973.87
2016-12-23T10:29:08.121Z,973.88
2016-12-23T10:30:07.852Z,973.84
2016-12-23T10:31:07.522Z,973.87
2016-12-23T10:32:08.078Z,973.78
2016-12-23T10:33:07.599Z,973.80
2016-12-23T10:34:08.186Z,973.85
2016-12-23T10:35:07.930Z,973.76
2016-12-23T10:36:07.546Z,973.75
2016-12-23T10:37:15.102Z,973.72
2016-12-23T10:38:07.751Z,973.75
2016-12-23T10:39:08.253Z,973.69
2016-12-23T10:40:07.762Z,973.67
2016-12-23T10:41:07.399Z,973.63
2016-12-23T10:42:07.891Z,973.61
2016-12-23T10:43:07.573Z,973.59
2016-12-23T10:44:08.163Z,973.50
2016-12-23T10:45:07.683Z,973.50
2016-12-23T10:46:08.233Z,973.49
2016-12-23T10:47:07.284Z,973.44
2016-12-23T10:48:07.810Z,973.46
2016-12-23T10:49:07.303Z,973.40
2016-12-23T10:50:07.840Z,973.37
2016-12-23T10:51:07.323Z,973.45
2016-12-23T10:52:07.823Z,973.37
2016-12-23T10:53:07.266Z,973.34
2016-12-23T10:54:08.194Z,973.29
2016-12-23T10:55:07.305Z,973.29
2016-12-23T10:56:07.864Z,973.27
2016-12-23T10:57:07.556Z,973.27
2016-12-23T10:58:08.069Z,973.25
2016-12-23T10:59:07.554Z,973.25
2016-12-23T11:00:08.374Z,973.19
2016-12-23T11:01:08.185Z,973.20
2016-12-23T11:02:08.048Z,973.19
2016-12-23T11:03:07.816Z,973.13
2016-12-23T11:04:07.349Z,973.13
2016-12-23T11:05:07.911Z,973.12
2016-12-23T11:06:07.723Z,973.15
2016-12-23T11:07:08.253Z,973.09
2016-12-23T11:08:07.706Z,973.12
2016-12-23T11:09:08.145Z,973.09
2016-12-23T11:10:07.915Z,973.09
2016-12-23T11:11:13.769Z,973.08
2016-12-23T11:12:07.641Z,973.02
2016-12-23T11:13:08.343Z,973.00
2016-12-23T11:14:08.796Z,973.01
2016-12-23T11:15:07.666Z,972.98
2016-12-23T11:16:08.238Z,972.97
2016-12-23T11:17:07.810Z,972.95
2016-12-23T11:18:07.289Z,972.88
2016-12-23T11:19:07.849Z,972.87
2016-12-23T11:20:07.463Z,972.82
2016-12-23T11:21:07.951Z,972.80
2016-12-23T11:22:07.405Z,972.81
2016-12-23T11:23:07.874Z,972.80
2016-12-23T11:24:07.999Z,972.74
2016-12-23T11:25:07.478Z,972.74
2016-12-23T11:26:08.075Z,972.79
2016-12-23T11:27:07.805Z,972.78
2016-12-23T11:28:07.493Z,972.79
2016-12-23T11:29:08.027Z,972.76
2016-12-23T11:30:07.784Z,972.75
2016-12-23T11:31:07.279Z,972.71
2016-12-23T11:32:07.803Z,972.74
2016-12-23T11:33:07.591Z,972.70
2016-12-23T11:34:08.167Z,972.70
2016-12-23T11:35:08.078Z,972.74
2016-12-23T11:36:07.627Z,972.69
2016-12-23T11:37:08.370Z,972.70
2016-12-23T11:38:07.902Z,972.75
2016-12-23T11:39:08.385Z,972.68
2016-12-23T11:40:07.950Z,972.66
2016-12-23T11:41:07.654Z,972.56
2016-12-23T11:42:07.685Z,972.57
2016-12-23T11:43:07.474Z,972.51
2016-12-23T11:44:07.792Z,972.48
2016-12-23T11:45:07.594Z,972.44
2016-12-23T11:46:08.119Z,972.43
2016-12-23T11:47:07.597Z,972.44
2016-12-23T11:48:08.108Z,972.40
2016-12-23T11:49:07.599Z,972.39
2016-12-23T11:50:08.645Z,972.38
2016-12-23T11:51:07.295Z,972.34
2016-12-23T11:52:07.847Z,972.33
2016-12-23T11:53:07.324Z,972.34
2016-12-23T11:54:07.843Z,972.30
2016-12-23T11:55:07.342Z,972.27
2016-12-23T11:56:07.896Z,972.25
2016-12-23T11:57:07.444Z,972.28
2016-12-23T11:58:08.008Z,972.22
2016-12-23T11:59:07.452Z,972.24
2016-12-23T12:00:07.833Z,972.26
2016-12-23T12:01:07.313Z,972.20
2016-12-23T12:02:07.946Z,972.16
2016-12-23T12:03:08.005Z,972.12
2016-12-23T12:04:07.504Z,972.09
2016-12-23T12:05:10.111Z,972.03
2016-12-23T12:06:07.672Z,972.01
2016-12-23T12:07:08.212Z,972.02
2016-12-23T12:08:07.636Z,972.02
2016-12-23T12:09:08.276Z,971.96
2016-12-23T12:10:07.911Z,971.98
2016-12-23T12:11:08.474Z,971.98
2016-12-23T12:12:08.063Z,971.96
2016-12-23T12:13:07.780Z,972.01
2016-12-23T12:14:07.332Z,971.99
2016-12-23T12:15:07.827Z,971.96
2016-12-23T12:16:07.346Z,971.97
2016-12-23T12:17:08.115Z,971.95
2016-12-23T12:18:07.609Z,971.98
2016-12-23T12:19:08.141Z,971.92
2016-12-23T12:20:07.630Z,971.92
2016-12-23T12:21:08.227Z,971.86
2016-12-23T12:22:07.780Z,971.92
2016-12-23T12:23:07.317Z,971.90
2016-12-23T12:24:07.832Z,971.85
2016-12-23T12:25:07.324Z,971.94
2016-12-23T12:26:07.881Z,971.88
2016-12-23T12:27:08.786Z,971.87
2016-12-23T12:28:07.377Z,971.89